Flight Track Log - Related Links

Times and Time Zones

All times are in EDT time to prevent confusion due to time zone crossing. See the AAL1583 flight status page for this flight to view local times or setup timezone preferences in your user account.

Time Position Orientation Groundspeed Altitude Reporting Facility
EDT Latitude Longitude Course Direction KTS MPH feet Rate Location/Type
Sun 05:39:19 PM 32.8833 -97.0500 North 184 212 1,200  Level Dallas TRACON
Sun 05:40:19 PM 32.8167 -97.0667 192° South 241 277 2,800 2,100 Climbing Dallas TRACON
Sun 05:41:00 PM 32.7574 -96.9555 112° Southeast  Level FlightAware
Sun 05:41:19 PM 32.7667 -97.1000 209° Southwest 266 306 5,400  Level Dallas TRACON
Sun 05:42:00 PM 32.7637 -96.8314 77° East  Level FlightAware
Sun 05:42:19 PM 32.7667 -97.2000 270° West 293 337 7,900  Level Dallas TRACON
Sun 05:43:00 PM 32.8601 -96.8000 North  Level FlightAware
Sun 05:43:30 PM 32.8250 -97.2675 316° Northwest 291 335 10,600  Level Fort Center
Sun 05:44:00 PM 32.9674 -96.8000 North  Level FlightAware
Sun 05:44:30 PM 32.9042 -97.2747 356° North 308 354 12,400  Level Fort Center
Sun 05:45:30 PM 33.0128 -97.2722 North 337 388 14,400 2,150 Climbing Fort Center
Sun 05:46:30 PM 33.1047 -97.2672 North 357 411 16,700 2,350 Climbing Fort Center
Sun 05:47:30 PM 33.2217 -97.2619 North 368 423 19,100 2,200 Climbing Fort Center
Sun 05:48:30 PM 33.3156 -97.2594 North 368 423 21,100 1,850 Climbing Fort Center
Sun 05:49:30 PM 33.4344 -97.2517 North 373 429 22,800 1,500 Climbing Fort Center
Sun 05:50:30 PM 33.5389 -97.2414 North 391 450 24,100 1,250 Climbing Fort Center
Sun 05:51:30 PM 33.6494 -97.2414 360° North 402 463 25,300 950 Climbing Fort Center
Sun 05:52:30 PM 33.7247 -97.3511 310° West 377 434 26,000 900 Climbing Fort Center
Sun 05:53:30 PM 33.8081 -97.4608 312° West 404 465 27,100 1,500 Climbing Fort Center
Sun 05:54:30 PM 33.9103 -97.5761 317° Northwest 446 513 29,000 1,650 Climbing Fort Center
Sun 05:55:30 PM 34.0019 -97.6717 319° Northwest 451 519 30,400 1,350 Climbing Fort Center
Sun 05:56:30 PM 34.0914 -97.7722 317° Northwest 446 513 31,700 1,050 Climbing Fort Center
Sun 05:57:30 PM 34.1725 -97.8728 314° West 438 504 32,500 900 Climbing Fort Center
Sun 05:58:30 PM 34.2617 -97.9714 318° Northwest 433 498 33,500 750 Climbing Fort Center
Sun 05:59:30 PM 34.3511 -98.0675 318° Northwest 433 498 34,000 250 Climbing Fort Center
Sun 06:00:30 PM 34.4381 -98.1639 318° Northwest 427 491 34,000  Level Fort Center
Sun 06:01:30 PM 34.5250 -98.2631 317° Northwest 421 484 34,000  Level Fort Center
Sun 06:02:30 PM 34.6142 -98.3597 318° Northwest 421 484 34,000  Level Fort Center
Sun 06:03:30 PM 34.6989 -98.4542 318° Northwest 421 484 34,000  Level Fort Center
Sun 06:04:30 PM 34.7900 -98.5461 320° Northwest 421 484 34,000  Level Fort Center
Sun 06:05:30 PM 34.8767 -98.6436 317° Northwest 421 484 34,000  Level Fort Center
Sun 06:06:30 PM 34.9675 -98.7436 318° Northwest 426 490 34,000  Level Fort Center
Sun 06:07:30 PM 35.0519 -98.8389 317° Northwest 421 484 34,000  Level Fort Center
Sun 06:08:30 PM 35.1383 -98.9394 316° Northwest 421 484 34,000  Level Fort Center
Sun 06:09:30 PM 35.2247 -99.0375 317° Northwest 421 484 34,000  Level Fort Center
Sun 06:10:30 PM 35.3131 -99.1383 317° Northwest 421 484 34,000  Level Fort Center
Sun 06:11:42 PM 35.3992 -99.2369 317° Northwest 421 484 34,000  Level Fort Center
Sun 06:13:47 PM 35.5897 -99.4603 316° Northwest 424 488 34,000  Level Kansas Center
Sun 06:14:48 PM 35.6775 -99.5600 317° Northwest 424 488 34,000  Level Kansas Center
Sun 06:15:49 PM 35.7619 -99.6617 316° Northwest 422 486 34,000  Level Kansas Center
Sun 06:16:53 PM 35.8486 -99.7631 317° Northwest 423 487 34,000  Level Kansas Center
Sun 06:17:53 PM 35.9336 -99.8636 316° Northwest 422 486 34,000  Level Kansas Center
Sun 06:18:57 PM 36.0183 -99.9644 316° Northwest 421 484 34,000  Level Kansas Center
Sun 06:19:58 PM 36.1031 -100.0658 316° Northwest 421 484 34,000  Level Kansas Center
Sun 06:20:58 PM 36.1869 -100.1675 316° Northwest 421 484 34,000  Level Kansas Center
Sun 06:22:02 PM 36.2894 -100.2892 316° Northwest 421 484 34,000  Level Kansas Center
Sun 06:23:03 PM 36.3733 -100.3917 315° West 422 486 34,000  Level Kansas Center
Sun 06:24:06 PM 36.4619 -100.5006 315° West 425 489 34,000  Level Kansas Center
Sun 06:25:07 PM 36.5422 -100.5983 316° Northwest 423 487 34,000  Level Kansas Center
Sun 06:26:10 PM 36.6361 -100.7119 316° Northwest 422 486 34,000  Level Kansas Center
Sun 06:27:10 PM 36.7161 -100.8122 315° West 423 487 34,000  Level Kansas Center
Sun 06:28:15 PM 36.7964 -100.9108 315° West 423 487 34,000  Level Kansas Center
Sun 06:29:16 PM 36.8906 -101.0258 316° Northwest 423 487 34,000  Level Kansas Center
Sun 06:30:16 PM 36.9706 -101.1253 315° West 422 486 34,000  Level Kansas Center
Sun 06:31:21 PM 37.0631 -101.2422 315° West 422 486 34,000  Level Kansas Center
Sun 06:32:21 PM 37.1436 -101.3425 315° West 423 487 34,000  Level Kansas Center
Sun 06:33:25 PM 37.2369 -101.4600 315° West 423 487 34,000  Level Kansas Center
Sun 06:34:25 PM 37.3169 -101.5603 315° West 423 487 34,000  Level Kansas Center
Sun 06:35:27 PM 37.3961 -101.6603 315° West 422 486 34,000  Level Kansas Center
Sun 06:36:28 PM 37.4872 -101.7758 315° West 417 480 34,000  Level Kansas Center
Sun 06:37:32 PM 37.5653 -101.8756 315° West 417 480 34,000  Level Kansas Center
Sun 06:38:31 PM 37.6558 -101.9919 315° West 414 476 34,000  Level Denver Center
Sun 06:39:36 PM 37.7322 -102.0914 314° West 414 476 34,000  Level Kansas Center
Sun 06:40:38 PM 37.8300 -102.1958 320° Northwest 411 473 34,000  Level Kansas Center
Sun 06:41:38 PM 37.9250 -102.2694 329° Northwest 415 478 34,000  Level Kansas Center
Sun 06:42:38 PM 38.0142 -102.3514 324° Northwest 413 475 34,000  Level Denver Center
Sun 06:43:40 PM 38.1217 -102.4403 327° Northwest 413 475 34,000  Level Denver Center
Sun 06:44:42 PM 38.2147 -102.5144 328° Northwest 411 473 34,000  Level Denver Center
Sun 06:45:43 PM 38.3169 -102.6094 324° Northwest 408 470 34,000  Level Denver Center
Sun 06:46:45 PM 38.3800 -102.7200 306° West 405 466 34,000  Level Denver Center
Sun 06:47:47 PM 38.4567 -102.8456 308° West 403 464 34,000  Level Denver Center
Sun 06:48:49 PM 38.5261 -102.9525 310° West 408 470 34,000  Level Denver Center
Sun 06:49:51 PM 38.6022 -103.0722 309° West 404 465 34,000 -976 Level Denver Center
Sun 06:50:52 PM 38.6733 -103.1844 309° West 406 467 32,000 -2,341 Descending Denver Center
Sun 06:51:54 PM 38.7464 -103.3003 309° West 417 480 29,200 -2,419 Descending Denver Center
Sun 06:52:56 PM 38.8167 -103.4125 309° West 407 468 27,000 -1,985 Descending Denver Center
Sun 06:54:10 PM 38.8869 -103.5225 309° West 400 460 24,700 -2,162 Descending Denver Center
Sun 06:55:12 PM 38.9658 -103.6489 309° West 379 436 22,100 -2,565 Descending Denver Center
Sun 06:56:14 PM 39.0436 -103.7769 308° West 378 435 19,400 -1,985 Descending Denver Center
Sun 06:57:28 PM 39.1081 -103.8781 309° West 369 425 17,600 -2,250 Descending Denver Center
Sun 06:58:30 PM 39.1575 -104.0192 294° West 361 415 14,300 -2,190 Descending Denver Center
Sun 06:59:34 PM 39.2153 -104.1367 302° West 375 432 13,000 -714 Descending Denver Center
Sun 07:00:36 PM 39.2950 -104.2006 328° Northwest 347 399 12,800 -871 Descending Denver Center
Sun 07:01:38 PM 39.3503 -104.3089 303° West 333 383 11,200 -1,355 Descending Denver Center
Sun 07:02:40 PM 39.4089 -104.4033 309° West 334 384 10,000 -581 Descending Denver Center
Sun 07:03:42 PM 39.4647 -104.5058 305° West 322 371 10,000  Level Denver Center
Sun 07:04:44 PM 39.5367 -104.5775 322° Northwest 327 376 10,000  Level Denver Center
Sun 07:05:46 PM 39.5942 -104.6256 327° Northwest 293 337 10,000 -726 Level Denver Center
Sun 07:06:48 PM 39.6842 -104.6436 351° North 280 322 8,500 -1,452 Descending Denver Center
Sun 07:07:50 PM 39.7503 -104.6439 360° North 242 278 7,000 -1,210 Descending Denver Center
Sun 07:08:52 PM 39.7994 -104.6428 North 167 192 6,000 -823 Descending Denver Center
Sun 07:09:54 PM 39.8372 -104.6419 North 150 173 5,300 -677 Descending Denver Center

Login

Don't have an account? Register now (free) for customized features, flight alerts, and more!